createdAt,value
2022-09-12T00:01:11.769Z,85.71
2022-09-12T00:03:58.158Z,85.90
2022-09-12T00:06:35.907Z,86.04
2022-09-12T00:09:32.437Z,85.54
2022-09-12T00:12:02.208Z,85.78
2022-09-12T00:14:40.892Z,86.03
2022-09-12T00:17:08.285Z,85.49
2022-09-12T00:19:39.836Z,85.66
2022-09-12T00:22:24.516Z,85.69
2022-09-12T00:24:55.947Z,86.17
2022-09-12T00:28:12.531Z,86.00
2022-09-12T00:31:10.280Z,85.79
2022-09-12T00:34:01.637Z,85.94
2022-09-12T00:36:30.298Z,85.90
2022-09-12T00:39:15.612Z,85.81
2022-09-12T00:41:59.394Z,85.72
2022-09-12T00:44:25.853Z,86.21
2022-09-12T00:47:16.744Z,85.91
2022-09-12T00:50:38.073Z,85.85
2022-09-12T00:53:24.109Z,85.73
2022-09-12T00:56:23.935Z,86.03
2022-09-12T00:59:01.794Z,86.20
2022-09-12T01:01:36.880Z,85.96
2022-09-12T01:04:28.145Z,86.00
2022-09-12T01:07:24.313Z,85.76
2022-09-12T01:10:39.656Z,86.02
2022-09-12T01:13:09.272Z,86.07
2022-09-12T01:15:52.680Z,85.91
2022-09-12T01:18:30.964Z,86.13
2022-09-12T01:21:24.826Z,86.07
2022-09-12T01:24:47.372Z,86.24
2022-09-12T01:28:03.837Z,86.14
2022-09-12T01:31:13.220Z,86.12
2022-09-12T01:34:28.461Z,86.19
2022-09-12T01:37:12.981Z,86.17
2022-09-12T01:40:33.864Z,85.60
2022-09-12T01:43:28.759Z,85.51
2022-09-12T01:46:44.108Z,85.89
2022-09-12T01:49:19.955Z,85.17
2022-09-12T01:52:18.525Z,85.52
2022-09-12T01:55:05.445Z,85.61
2022-09-12T01:57:56.114Z,85.65
2022-09-12T02:00:27.284Z,85.85
2022-09-12T02:03:38.454Z,85.70
2022-09-12T02:06:12.064Z,85.72
2022-09-12T02:09:20.818Z,85.52
2022-09-12T02:11:52.471Z,85.64
2022-09-12T02:14:42.996Z,85.46
2022-09-12T02:17:16.623Z,85.80
2022-09-12T02:20:26.032Z,85.65
2022-09-12T02:23:08.909Z,85.80
2022-09-12T02:25:43.138Z,85.71
2022-09-12T02:28:21.687Z,85.96
2022-09-12T02:31:23.339Z,85.43
2022-09-12T02:34:35.465Z,85.84
2022-09-12T02:37:08.720Z,85.99
2022-09-12T02:39:55.826Z,86.03
2022-09-12T02:42:29.361Z,85.89
2022-09-12T02:45:00.112Z,85.98
2022-09-12T02:48:04.233Z,85.99
2022-09-12T02:50:32.176Z,85.95
2022-09-12T02:53:13.411Z,85.92
2022-09-12T02:55:42.050Z,86.08
2022-09-12T02:58:18.235Z,86.35
2022-09-12T03:01:12.499Z,86.34
2022-09-12T03:04:08.308Z,86.43
2022-09-12T03:07:13.137Z,86.23
2022-09-12T03:13:39.137Z,86.75
2022-09-12T03:16:31.711Z,86.57
2022-09-12T03:19:29.268Z,87.04
2022-09-12T03:22:34.845Z,86.95
2022-09-12T03:25:49.720Z,86.78
2022-09-12T03:28:19.139Z,87.18
2022-09-12T03:31:16.772Z,86.94
2022-09-12T03:34:13.108Z,86.86
2022-09-12T03:36:49.792Z,86.85
2022-09-12T03:39:21.078Z,86.71
2022-09-12T03:41:51.210Z,86.47
2022-09-12T03:44:23.152Z,86.55
2022-09-12T03:46:51.770Z,86.83
2022-09-12T03:49:27.515Z,86.46
2022-09-12T03:51:57.026Z,86.88
2022-09-12T03:54:27.591Z,86.71
2022-09-12T03:56:55.192Z,86.49
2022-09-12T03:59:22.776Z,86.66
2022-09-12T04:01:56.324Z,86.85
2022-09-12T04:04:30.062Z,86.81
2022-09-12T04:07:11.190Z,86.92
2022-09-12T04:09:56.443Z,86.88
2022-09-12T04:12:31.618Z,86.70
2022-09-12T04:15:00.270Z,86.84
2022-09-12T04:17:36.116Z,87.06
2022-09-12T04:20:06.769Z,86.86
2022-09-12T04:22:35.535Z,87.28
2022-09-12T04:25:19.546Z,87.15
2022-09-12T04:27:48.222Z,87.42
2022-09-12T04:30:16.102Z,87.44
2022-09-12T04:33:32.593Z,87.47
2022-09-12T04:36:25.034Z,87.53
2022-09-12T04:39:10.632Z,87.87
2022-09-12T04:41:53.656Z,87.58
2022-09-12T04:44:25.204Z,87.75
2022-09-12T04:47:12.145Z,87.34
2022-09-12T04:49:44.930Z,87.51
2022-09-12T04:52:11.697Z,87.89
2022-09-12T04:54:42.869Z,88.23
2022-09-12T04:57:13.471Z,87.96
2022-09-12T04:59:40.191Z,87.96
2022-09-12T05:02:07.830Z,88.36
2022-09-12T05:04:36.135Z,88.29
2022-09-12T05:07:09.866Z,88.42
2022-09-12T05:09:47.914Z,88.55
2022-09-12T05:12:24.036Z,88.35
2022-09-12T05:14:55.958Z,88.62
2022-09-12T05:18:00.523Z,88.53
2022-09-12T05:20:40.448Z,88.67
2022-09-12T05:23:09.917Z,88.47
2022-09-12T05:25:59.495Z,88.31
2022-09-12T05:28:30.811Z,88.58
2022-09-12T05:31:24.263Z,88.34
2022-09-12T05:34:15.724Z,88.46
2022-09-12T05:37:00.756Z,88.99
2022-09-12T05:39:34.371Z,88.69
2022-09-12T05:42:09.285Z,88.76
2022-09-12T05:44:37.034Z,88.85
2022-09-12T05:47:04.601Z,89.07
2022-09-12T05:49:59.949Z,88.98
2022-09-12T05:52:41.014Z,89.00
2022-09-12T05:55:16.678Z,89.09
2022-09-12T05:57:50.489Z,88.91
2022-09-12T06:00:20.662Z,89.28
2022-09-12T06:03:02.455Z,88.87
2022-09-12T06:05:29.094Z,88.37
2022-09-12T06:08:04.177Z,88.94
2022-09-12T06:11:03.901Z,88.53
2022-09-12T06:13:42.861Z,88.63
2022-09-12T06:16:31.291Z,88.67
2022-09-12T06:19:18.934Z,88.50
2022-09-12T06:22:10.045Z,89.15
2022-09-12T06:24:44.766Z,89.20
2022-09-12T06:27:20.618Z,89.08
2022-09-12T06:30:37.425Z,89.23
2022-09-12T06:33:56.625Z,88.90
2022-09-12T06:36:49.652Z,89.01
2022-09-12T06:39:26.233Z,89.25
2022-09-12T06:42:12.636Z,88.83
2022-09-12T06:44:40.300Z,89.31
2022-09-12T06:47:12.932Z,89.47
2022-09-12T06:49:56.746Z,89.39
2022-09-12T06:52:55.189Z,89.61
2022-09-12T06:55:27.714Z,89.52
2022-09-12T06:58:05.887Z,89.58
2022-09-12T07:00:32.475Z,89.83
2022-09-12T07:03:05.238Z,89.61
2022-09-12T07:05:35.813Z,89.48
2022-09-12T07:08:08.344Z,89.96
2022-09-12T07:11:25.809Z,89.60
2022-09-12T07:14:37.796Z,89.60
2022-09-12T07:17:28.983Z,89.73
2022-09-12T07:20:07.249Z,89.93
2022-09-12T07:22:37.956Z,89.76
2022-09-12T07:25:11.507Z,89.58
2022-09-12T07:27:47.133Z,89.41
2022-09-12T07:30:23.252Z,89.42
2022-09-12T07:32:56.069Z,89.35
2022-09-12T07:35:33.428Z,89.53
2022-09-12T07:38:11.248Z,89.32
2022-09-12T07:40:38.690Z,88.77
2022-09-12T07:43:21.928Z,89.14
2022-09-12T07:45:55.909Z,88.91
2022-09-12T07:48:30.466Z,88.71
2022-09-12T07:51:03.476Z,88.40
2022-09-12T07:53:40.174Z,88.07
2022-09-12T07:56:11.232Z,88.05
2022-09-12T07:58:44.995Z,88.25
2022-09-12T08:01:25.124Z,87.20
2022-09-12T08:04:00.003Z,87.53
2022-09-12T08:06:37.059Z,87.23
2022-09-12T08:09:17.468Z,86.94
2022-09-12T08:11:50.140Z,86.65
2022-09-12T08:14:32.096Z,86.43
2022-09-12T08:16:59.544Z,86.21
2022-09-12T08:19:28.005Z,86.23
2022-09-12T08:21:55.465Z,85.74
2022-09-12T08:28:15.807Z,85.83
2022-09-12T08:30:43.369Z,85.83
2022-09-12T08:33:10.901Z,86.23
2022-09-12T08:35:54.680Z,86.08
2022-09-12T08:38:25.287Z,86.46
2022-09-12T08:41:05.290Z,85.43
2022-09-12T08:44:23.705Z,84.96
2022-09-12T08:47:02.488Z,84.80
2022-09-12T08:49:34.283Z,84.63
2022-09-12T08:52:15.485Z,84.92
2022-09-12T08:54:45.510Z,84.26
2022-09-12T08:57:20.325Z,84.53
2022-09-12T08:59:48.305Z,84.52
2022-09-12T09:02:44.960Z,83.38
2022-09-12T09:05:25.211Z,83.94
2022-09-12T09:08:18.517Z,83.29
2022-09-12T09:11:03.736Z,83.60
2022-09-12T09:13:56.496Z,82.83
2022-09-12T09:16:30.633Z,81.86
2022-09-12T09:19:05.990Z,81.74
2022-09-12T09:21:48.816Z,81.42
2022-09-12T09:24:21.752Z,81.30
2022-09-12T09:27:01.661Z,81.86
2022-09-12T09:29:51.183Z,81.55
2022-09-12T09:32:22.904Z,79.91
2022-09-12T09:34:49.665Z,80.40
2022-09-12T09:37:42.469Z,80.12
2022-09-12T09:40:24.255Z,80.08
2022-09-12T09:43:29.809Z,80.19
2022-09-12T09:45:58.380Z,80.59
2022-09-12T09:48:29.837Z,80.11
2022-09-12T09:50:58.375Z,79.75
2022-09-12T09:53:39.732Z,80.06
2022-09-12T09:56:13.427Z,78.43
2022-09-12T09:58:40.471Z,78.55
2022-09-12T10:01:17.018Z,78.83
2022-09-12T10:03:55.775Z,79.10
2022-09-12T10:06:38.034Z,77.55
2022-09-12T10:09:18.745Z,78.19
2022-09-12T10:11:46.244Z,78.47
2022-09-12T10:14:31.487Z,78.14
2022-09-12T12:25:50.516Z,69.24
2022-09-12T12:28:40.212Z,68.87
2022-09-12T12:31:07.340Z,67.87
2022-09-12T12:33:37.392Z,67.36
2022-09-12T12:36:07.143Z,66.67
2022-09-12T12:38:36.586Z,66.77
2022-09-12T12:41:18.453Z,66.14
2022-09-12T12:43:47.984Z,66.54
2022-09-12T12:46:16.854Z,65.37
2022-09-12T12:49:00.951Z,65.51
2022-09-12T12:51:36.908Z,65.87
2022-09-12T12:54:25.235Z,64.30
2022-09-12T12:57:15.648Z,63.88
2022-09-12T13:00:11.374Z,63.75
2022-09-12T13:03:09.506Z,63.09
2022-09-12T13:05:46.732Z,64.20
2022-09-12T13:08:19.253Z,64.35
2022-09-12T13:11:15.907Z,63.46
2022-09-12T13:13:58.858Z,63.98
2022-09-12T13:16:39.055Z,63.97
2022-09-12T13:19:18.171Z,63.43
2022-09-12T13:22:05.430Z,64.59
2022-09-12T13:24:34.113Z,63.29
2022-09-12T13:27:00.655Z,63.50
2022-09-12T13:29:28.115Z,62.83
2022-09-12T13:31:59.178Z,62.52
2022-09-12T13:34:47.117Z,62.05
2022-09-12T13:37:41.484Z,61.98
2022-09-12T13:40:37.434Z,62.59
2022-09-12T13:43:21.843Z,61.05
2022-09-12T13:45:48.433Z,61.41
2022-09-12T13:48:25.287Z,62.06
2022-09-12T13:50:56.392Z,62.39
2022-09-12T13:53:27.184Z,62.87
2022-09-12T13:55:57.048Z,63.16
2022-09-12T13:58:33.221Z,62.44
2022-09-12T14:01:05.344Z,62.88
2022-09-12T14:03:58.055Z,63.91
2022-09-12T14:06:26.237Z,63.54
2022-09-12T14:09:01.490Z,63.29
2022-09-12T14:11:33.710Z,63.02
2022-09-12T14:14:06.472Z,63.64
2022-09-12T14:16:39.937Z,63.45
2022-09-12T14:19:06.381Z,62.80
2022-09-12T14:21:35.952Z,61.68
2022-09-12T14:24:06.703Z,61.88
2022-09-12T14:26:40.429Z,61.52
2022-09-12T14:29:08.040Z,61.38
2022-09-12T14:31:39.259Z,61.51
2022-09-12T14:34:14.948Z,60.72
2022-09-12T14:36:47.213Z,61.35
2022-09-12T14:39:40.069Z,62.23
2022-09-12T14:42:12.883Z,62.77
2022-09-12T14:44:39.956Z,63.24
2022-09-12T14:47:18.444Z,63.62
2022-09-12T14:49:46.106Z,63.43
2022-09-12T14:52:34.178Z,63.06
2022-09-12T14:55:34.059Z,62.84
2022-09-12T14:58:28.209Z,62.56
2022-09-12T15:01:04.580Z,62.19
2022-09-12T15:03:48.682Z,62.15
2022-09-12T15:06:25.510Z,62.21
2022-09-12T15:08:54.865Z,63.09
2022-09-12T15:11:21.535Z,63.86
2022-09-12T15:13:48.183Z,63.14
2022-09-12T15:16:14.664Z,63.71
2022-09-12T15:18:41.481Z,63.37
2022-09-12T15:21:11.791Z,63.51
2022-09-12T15:23:45.656Z,63.39
2022-09-12T15:26:18.549Z,62.97
2022-09-12T15:28:45.837Z,63.18
2022-09-12T15:31:27.851Z,63.48
2022-09-12T15:33:55.361Z,63.13
2022-09-12T15:36:24.785Z,63.19
2022-09-12T15:38:52.242Z,63.58
2022-09-12T15:41:32.480Z,64.65
2022-09-12T15:43:58.975Z,64.22
2022-09-12T15:46:26.458Z,64.38
2022-09-12T15:48:52.900Z,64.33
2022-09-12T15:51:21.188Z,64.10
2022-09-12T15:53:49.014Z,64.76
2022-09-12T15:56:21.092Z,65.64
2022-09-12T15:58:58.158Z,64.47
2022-09-12T16:01:25.627Z,65.04
2022-09-12T16:03:52.060Z,64.60
2022-09-12T16:06:18.403Z,64.57
2022-09-12T16:08:44.823Z,63.94
2022-09-12T16:11:19.372Z,64.08
2022-09-12T16:13:45.687Z,63.86
2022-09-12T16:16:13.388Z,63.02
2022-09-12T16:18:41.442Z,63.66
2022-09-12T16:21:11.469Z,63.12
2022-09-12T16:23:46.303Z,63.22
2022-09-12T16:26:13.392Z,63.01
2022-09-12T16:28:40.096Z,62.62
2022-09-12T16:31:08.650Z,62.84
2022-09-12T16:33:37.897Z,63.51
2022-09-12T16:36:07.424Z,63.27
2022-09-12T16:38:35.645Z,63.48
2022-09-12T16:41:06.676Z,63.31
2022-09-12T16:43:35.083Z,64.93
2022-09-12T16:46:16.222Z,64.04
2022-09-12T16:48:52.082Z,65.28
2022-09-12T16:51:21.676Z,65.54
2022-09-12T16:53:48.704Z,64.82
2022-09-12T16:56:15.416Z,65.88
2022-09-12T16:58:42.422Z,66.61
2022-09-12T17:01:15.144Z,66.79
2022-09-12T17:03:42.603Z,67.65
2022-09-12T17:06:12.840Z,68.67
2022-09-12T17:08:42.530Z,69.11
2022-09-12T17:11:11.781Z,68.80
2022-09-12T17:14:02.608Z,69.69
2022-09-12T17:16:27.895Z,68.48
2022-09-12T17:18:54.912Z,67.91
2022-09-12T17:21:22.508Z,67.23
2022-09-12T17:23:49.282Z,67.60
2022-09-12T17:26:17.412Z,69.89
2022-09-12T17:28:44.097Z,70.06
2022-09-12T17:31:13.692Z,70.23
2022-09-12T17:33:40.877Z,70.13
2022-09-12T17:36:14.860Z,71.48
2022-09-12T17:38:48.149Z,70.04
2022-09-12T17:41:18.463Z,71.80
2022-09-12T17:43:49.402Z,70.47
2022-09-12T17:46:18.571Z,71.12
2022-09-12T17:48:55.152Z,72.17
2022-09-12T17:51:24.930Z,72.58
2022-09-12T17:54:08.395Z,71.78
2022-09-12T17:56:37.100Z,72.40
2022-09-12T17:59:05.367Z,73.47
2022-09-12T18:01:51.220Z,72.67
2022-09-12T18:04:17.892Z,72.52
2022-09-12T18:06:49.001Z,73.41
2022-09-12T18:09:23.297Z,73.86
2022-09-12T18:11:51.498Z,74.84
2022-09-12T18:14:18.537Z,74.68
2022-09-12T18:16:46.945Z,75.08
2022-09-12T18:19:15.007Z,75.19
2022-09-12T18:21:42.738Z,75.50
2022-09-12T18:24:10.173Z,75.78
2022-09-12T18:26:38.446Z,75.53
2022-09-12T18:29:06.632Z,76.08
2022-09-12T18:31:34.227Z,76.49
2022-09-12T18:34:00.987Z,76.50
2022-09-12T18:36:28.352Z,76.71
2022-09-12T18:38:56.836Z,76.81
2022-09-12T18:41:24.787Z,76.63
2022-09-12T18:43:59.902Z,76.52
2022-09-12T18:46:27.929Z,77.18
2022-09-12T18:48:58.698Z,77.21
2022-09-12T18:51:31.914Z,77.61
2022-09-12T18:54:06.346Z,78.03
2022-09-12T18:56:35.068Z,78.53
2022-09-12T18:59:05.469Z,78.58
2022-09-12T19:01:34.712Z,78.29
2022-09-12T19:04:04.679Z,78.31
2022-09-12T19:06:35.188Z,78.48
2022-09-12T19:09:07.618Z,78.51
2022-09-12T19:11:39.267Z,78.13
2022-09-12T19:14:06.504Z,78.38
2022-09-12T19:16:33.761Z,78.83
2022-09-12T19:19:02.670Z,79.07
2022-09-12T19:21:31.371Z,78.69
2022-09-12T19:24:10.090Z,78.64
2022-09-12T19:26:39.056Z,79.13
2022-09-12T19:29:06.687Z,79.38
2022-09-12T19:31:35.356Z,78.89
2022-09-12T19:34:06.495Z,78.93
2022-09-12T19:36:50.670Z,78.96
2022-09-12T19:39:20.091Z,79.23
2022-09-12T19:41:47.028Z,79.02
2022-09-12T19:44:13.687Z,79.80
2022-09-12T19:46:40.804Z,80.22
2022-09-12T19:49:10.072Z,79.99
2022-09-12T19:51:38.722Z,80.15
2022-09-12T19:54:06.041Z,80.66
2022-09-12T19:56:33.427Z,80.74
2022-09-12T19:59:00.106Z,80.81
2022-09-12T20:01:28.518Z,80.75
2022-09-12T20:03:57.563Z,80.61
2022-09-12T20:06:24.761Z,80.57
2022-09-12T20:08:52.231Z,80.10
2022-09-12T20:11:21.776Z,79.46
2022-09-12T20:13:48.225Z,79.88
2022-09-12T20:16:23.189Z,79.93
2022-09-12T20:18:55.226Z,79.95
2022-09-12T20:21:25.530Z,79.49
2022-09-12T20:23:51.950Z,79.58
2022-09-12T20:26:20.393Z,79.57
2022-09-12T20:28:47.109Z,80.09
2022-09-12T20:31:16.537Z,80.58
2022-09-12T20:33:43.487Z,80.87
2022-09-12T20:36:16.995Z,80.69
2022-09-12T20:38:50.023Z,80.52
2022-09-12T20:41:19.828Z,81.27
2022-09-12T20:43:53.059Z,81.36
2022-09-12T20:46:22.481Z,81.26
2022-09-12T20:48:51.182Z,81.65
2022-09-12T20:51:19.956Z,81.95
2022-09-12T20:53:54.855Z,81.93
2022-09-12T20:56:22.565Z,82.24
2022-09-12T20:58:49.075Z,82.14
2022-09-12T21:01:17.146Z,82.00
2022-09-12T21:03:44.723Z,82.79
2022-09-12T21:06:16.852Z,82.75
2022-09-12T21:08:44.200Z,82.81
2022-09-12T21:11:10.775Z,82.53
2022-09-12T21:13:38.808Z,82.63
2022-09-12T21:16:12.249Z,82.74
2022-09-12T21:18:39.525Z,82.70
2022-09-12T21:21:06.126Z,82.88
2022-09-12T21:23:33.668Z,83.20
2022-09-12T21:26:01.355Z,83.02
2022-09-12T21:28:28.520Z,83.08
2022-09-12T21:31:00.976Z,82.87
2022-09-12T21:33:28.439Z,82.67
2022-09-12T21:36:02.653Z,83.07
2022-09-12T21:38:31.764Z,83.05
2022-09-12T21:41:05.202Z,83.08
2022-09-12T21:43:31.653Z,83.19
2022-09-12T21:46:01.563Z,83.43
2022-09-12T21:48:30.424Z,83.67
2022-09-12T21:50:58.480Z,83.85
2022-09-12T21:53:26.416Z,83.75
2022-09-12T21:56:01.299Z,84.01
2022-09-12T21:58:27.845Z,84.37
2022-09-12T22:00:55.341Z,84.88
2022-09-12T22:03:22.176Z,84.79
2022-09-12T22:05:58.817Z,84.40
2022-09-12T22:08:26.895Z,84.16
2022-09-12T22:10:58.449Z,84.07
2022-09-12T22:13:26.193Z,84.03
2022-09-12T22:15:53.175Z,84.10
2022-09-12T22:18:20.697Z,84.27
2022-09-12T22:20:48.308Z,83.90
2022-09-12T22:23:33.757Z,83.65
2022-09-12T22:26:03.180Z,84.03
2022-09-12T22:28:32.083Z,83.67
2022-09-12T22:30:59.600Z,83.71
2022-09-12T22:33:27.952Z,83.25
2022-09-12T22:35:56.323Z,83.51
2022-09-12T22:38:26.205Z,83.43
2022-09-12T22:40:53.619Z,82.90
2022-09-12T22:43:21.071Z,82.61
2022-09-12T22:45:48.532Z,82.93
2022-09-12T22:48:17.121Z,82.85
2022-09-12T22:50:45.726Z,83.32
2022-09-12T22:53:12.103Z,83.31
2022-09-12T22:55:38.565Z,83.17
2022-09-12T22:58:06.133Z,83.16
2022-09-12T23:00:33.817Z,82.45
2022-09-12T23:03:02.287Z,82.69
2022-09-12T23:05:28.996Z,82.43
2022-09-12T23:07:56.376Z,82.47
2022-09-12T23:10:23.797Z,83.08
2022-09-12T23:12:50.325Z,83.43
2022-09-12T23:15:16.909Z,83.56
2022-09-12T23:17:43.292Z,83.54
2022-09-12T23:20:10.843Z,83.73
2022-09-12T23:22:38.216Z,83.33
2022-09-12T23:25:04.940Z,83.20
2022-09-12T23:27:32.436Z,83.26
2022-09-12T23:29:59.808Z,83.31
2022-09-12T23:32:27.428Z,83.27
2022-09-12T23:34:53.916Z,83.06
2022-09-12T23:37:21.657Z,82.78
2022-09-12T23:39:49.647Z,82.82
2022-09-12T23:42:16.999Z,82.79
2022-09-12T23:44:43.476Z,82.80
2022-09-12T23:47:18.487Z,82.80
2022-09-12T23:49:45.898Z,82.87
2022-09-12T23:52:12.337Z,83.13
2022-09-12T23:54:40.136Z,83.11
2022-09-12T23:57:08.663Z,82.91
2022-09-12T23:59:35.139Z,83.06
